sensor_id;sensor_type;location;lat;lon;timestamp;temperature;humidity
5556;DHT22;2801;50.972;7.856;2024-03-06T00:00:18;4.80;99.90
5556;DHT22;2801;50.972;7.856;2024-03-06T00:02:46;4.50;99.90
5556;DHT22;2801;50.972;7.856;2024-03-06T00:05:16;4.60;99.90
5556;DHT22;2801;50.972;7.856;2024-03-06T00:07:43;4.60;99.90
5556;DHT22;2801;50.972;7.856;2024-03-06T00:10:10;4.50;99.90
5556;DHT22;2801;50.972;7.856;2024-03-06T00:12:37;4.60;99.90
5556;DHT22;2801;50.972;7.856;2024-03-06T00:15:04;4.40;99.90
5556;DHT22;2801;50.972;7.856;2024-03-06T00:17:32;4.60;99.90
5556;DHT22;2801;50.972;7.856;2024-03-06T00:19:59;4.30;99.90
5556;DHT22;2801;50.972;7.856;2024-03-06T00:22:26;4.40;99.90
5556;DHT22;2801;50.972;7.856;2024-03-06T00:24:53;4.30;99.90
5556;DHT22;2801;50.972;7.856;2024-03-06T00:27:20;4.30;99.90
5556;DHT22;2801;50.972;7.856;2024-03-06T00:29:47;4.30;99.90
5556;DHT22;2801;50.972;7.856;2024-03-06T00:32:14;4.30;99.90
5556;DHT22;2801;50.972;7.856;2024-03-06T00:34:41;4.30;99.90
5556;DHT22;2801;50.972;7.856;2024-03-06T00:37:08;4.30;99.90
5556;DHT22;2801;50.972;7.856;2024-03-06T00:39:35;4.30;99.90
5556;DHT22;2801;50.972;7.856;2024-03-06T00:46:09;4.20;99.90
5556;DHT22;2801;50.972;7.856;2024-03-06T00:48:37;4.20;99.90
5556;DHT22;2801;50.972;7.856;2024-03-06T00:51:07;4.20;99.90
5556;DHT22;2801;50.972;7.856;2024-03-06T00:53:35;4.30;99.90
5556;DHT22;2801;50.972;7.856;2024-03-06T00:56:03;4.30;99.90
5556;DHT22;2801;50.972;7.856;2024-03-06T00:58:30;4.30;99.90
5556;DHT22;2801;50.972;7.856;2024-03-06T01:00:58;4.10;99.90
5556;DHT22;2801;50.972;7.856;2024-03-06T01:03:25;4.20;99.90
5556;DHT22;2801;50.972;7.856;2024-03-06T01:05:52;4.30;99.90
5556;DHT22;2801;50.972;7.856;2024-03-06T01:08:21;4.40;99.90
5556;DHT22;2801;50.972;7.856;2024-03-06T01:10:48;4.20;99.90
5556;DHT22;2801;50.972;7.856;2024-03-06T01:13:17;4.10;99.90
5556;DHT22;2801;50.972;7.856;2024-03-06T01:15:46;4.20;99.90
5556;DHT22;2801;50.972;7.856;2024-03-06T01:18:13;4.00;99.90
5556;DHT22;2801;50.972;7.856;2024-03-06T01:20:41;4.20;99.90
5556;DHT22;2801;50.972;7.856;2024-03-06T01:23:08;4.10;99.90
5556;DHT22;2801;50.972;7.856;2024-03-06T01:25:35;4.10;99.90
5556;DHT22;2801;50.972;7.856;2024-03-06T01:28:03;3.90;99.90
5556;DHT22;2801;50.972;7.856;2024-03-06T01:30:30;4.00;99.90
5556;DHT22;2801;50.972;7.856;2024-03-06T01:32:57;4.20;99.90
5556;DHT22;2801;50.972;7.856;2024-03-06T01:35:25;3.80;99.90
5556;DHT22;2801;50.972;7.856;2024-03-06T01:37:52;4.00;99.90
5556;DHT22;2801;50.972;7.856;2024-03-06T01:40:20;3.90;99.90
5556;DHT22;2801;50.972;7.856;2024-03-06T01:42:47;4.10;99.90
5556;DHT22;2801;50.972;7.856;2024-03-06T01:45:18;4.10;99.90
5556;DHT22;2801;50.972;7.856;2024-03-06T01:47:47;4.00;99.90
5556;DHT22;2801;50.972;7.856;2024-03-06T01:50:14;4.10;99.90
5556;DHT22;2801;50.972;7.856;2024-03-06T01:52:41;4.10;99.90
5556;DHT22;2801;50.972;7.856;2024-03-06T01:55:12;4.00;99.90
5556;DHT22;2801;50.972;7.856;2024-03-06T01:57:42;4.00;99.90
5556;DHT22;2801;50.972;7.856;2024-03-06T02:00:11;4.00;99.90
5556;DHT22;2801;50.972;7.856;2024-03-06T02:02:42;3.80;99.90
5556;DHT22;2801;50.972;7.856;2024-03-06T02:05:09;4.00;99.90
5556;DHT22;2801;50.972;7.856;2024-03-06T02:07:43;3.80;99.90
5556;DHT22;2801;50.972;7.856;2024-03-06T02:10:11;4.00;99.90
5556;DHT22;2801;50.972;7.856;2024-03-06T02:12:39;4.00;99.90
5556;DHT22;2801;50.972;7.856;2024-03-06T02:15:06;3.80;99.90
5556;DHT22;2801;50.972;7.856;2024-03-06T02:17:35;4.00;99.90
5556;DHT22;2801;50.972;7.856;2024-03-06T02:20:02;3.90;99.90
5556;DHT22;2801;50.972;7.856;2024-03-06T02:22:33;3.90;99.90
5556;DHT22;2801;50.972;7.856;2024-03-06T02:25:00;3.80;99.90
5556;DHT22;2801;50.972;7.856;2024-03-06T02:27:27;3.90;99.90
5556;DHT22;2801;50.972;7.856;2024-03-06T02:29:54;3.70;99.90
5556;DHT22;2801;50.972;7.856;2024-03-06T02:32:23;3.90;99.90
5556;DHT22;2801;50.972;7.856;2024-03-06T02:34:51;3.90;99.90
5556;DHT22;2801;50.972;7.856;2024-03-06T02:37:18;3.90;99.90
5556;DHT22;2801;50.972;7.856;2024-03-06T02:39:45;3.80;99.90
5556;DHT22;2801;50.972;7.856;2024-03-06T02:42:12;3.60;99.90
5556;DHT22;2801;50.972;7.856;2024-03-06T02:44:39;3.80;99.90
5556;DHT22;2801;50.972;7.856;2024-03-06T02:47:06;3.70;99.90
5556;DHT22;2801;50.972;7.856;2024-03-06T02:49:34;3.70;99.90
5556;DHT22;2801;50.972;7.856;2024-03-06T02:52:01;3.60;99.90
5556;DHT22;2801;50.972;7.856;2024-03-06T02:54:28;3.60;99.90
5556;DHT22;2801;50.972;7.856;2024-03-06T02:56:55;3.40;99.90
5556;DHT22;2801;50.972;7.856;2024-03-06T02:59:22;3.50;99.90
5556;DHT22;2801;50.972;7.856;2024-03-06T03:01:50;3.50;99.90
5556;DHT22;2801;50.972;7.856;2024-03-06T03:04:18;3.50;99.90
5556;DHT22;2801;50.972;7.856;2024-03-06T03:06:45;3.50;99.90
5556;DHT22;2801;50.972;7.856;2024-03-06T03:09:12;3.30;99.90
5556;DHT22;2801;50.972;7.856;2024-03-06T03:11:39;3.40;99.90
5556;DHT22;2801;50.972;7.856;2024-03-06T03:14:06;3.40;99.90
5556;DHT22;2801;50.972;7.856;2024-03-06T03:16:33;3.60;99.90
5556;DHT22;2801;50.972;7.856;2024-03-06T03:19:02;3.40;99.90
5556;DHT22;2801;50.972;7.856;2024-03-06T03:21:29;3.70;99.90
5556;DHT22;2801;50.972;7.856;2024-03-06T03:23:56;3.50;99.90
5556;DHT22;2801;50.972;7.856;2024-03-06T03:26:23;3.80;99.90
5556;DHT22;2801;50.972;7.856;2024-03-06T03:28:50;3.70;99.90
5556;DHT22;2801;50.972;7.856;2024-03-06T03:31:17;3.50;99.90
5556;DHT22;2801;50.972;7.856;2024-03-06T03:33:44;3.70;99.90
5556;DHT22;2801;50.972;7.856;2024-03-06T03:36:11;3.80;99.90
5556;DHT22;2801;50.972;7.856;2024-03-06T03:38:39;3.80;99.90
5556;DHT22;2801;50.972;7.856;2024-03-06T03:41:10;3.50;99.90
5556;DHT22;2801;50.972;7.856;2024-03-06T03:43:43;3.70;99.90
5556;DHT22;2801;50.972;7.856;2024-03-06T03:46:10;3.80;99.90
5556;DHT22;2801;50.972;7.856;2024-03-06T03:48:37;3.70;99.90
5556;DHT22;2801;50.972;7.856;2024-03-06T03:51:05;3.70;99.90
5556;DHT22;2801;50.972;7.856;2024-03-06T03:53:34;3.50;99.90
5556;DHT22;2801;50.972;7.856;2024-03-06T03:56:01;3.70;99.90
5556;DHT22;2801;50.972;7.856;2024-03-06T03:58:30;3.50;99.90
5556;DHT22;2801;50.972;7.856;2024-03-06T04:00:57;3.50;99.90
5556;DHT22;2801;50.972;7.856;2024-03-06T04:03:24;3.70;99.90
5556;DHT22;2801;50.972;7.856;2024-03-06T04:05:51;3.60;99.90
5556;DHT22;2801;50.972;7.856;2024-03-06T04:08:19;3.50;99.90
5556;DHT22;2801;50.972;7.856;2024-03-06T04:10:46;3.50;99.90
5556;DHT22;2801;50.972;7.856;2024-03-06T04:13:15;3.30;99.90
5556;DHT22;2801;50.972;7.856;2024-03-06T04:15:43;3.50;99.90
5556;DHT22;2801;50.972;7.856;2024-03-06T04:18:10;3.40;99.90
5556;DHT22;2801;50.972;7.856;2024-03-06T04:20:37;3.50;99.90
5556;DHT22;2801;50.972;7.856;2024-03-06T04:23:04;3.30;99.90
5556;DHT22;2801;50.972;7.856;2024-03-06T04:25:31;3.30;99.90
5556;DHT22;2801;50.972;7.856;2024-03-06T04:27:58;3.20;99.90
5556;DHT22;2801;50.972;7.856;2024-03-06T04:30:25;3.50;99.90
5556;DHT22;2801;50.972;7.856;2024-03-06T04:32:52;3.30;99.90
5556;DHT22;2801;50.972;7.856;2024-03-06T04:35:19;3.30;99.90
5556;DHT22;2801;50.972;7.856;2024-03-06T04:37:46;3.50;99.90
5556;DHT22;2801;50.972;7.856;2024-03-06T04:40:13;3.60;99.90
5556;DHT22;2801;50.972;7.856;2024-03-06T04:42:48;3.40;99.90
5556;DHT22;2801;50.972;7.856;2024-03-06T04:45:17;3.40;99.90
5556;DHT22;2801;50.972;7.856;2024-03-06T04:47:44;3.40;99.90
5556;DHT22;2801;50.972;7.856;2024-03-06T04:50:12;3.40;99.90
5556;DHT22;2801;50.972;7.856;2024-03-06T04:52:43;3.50;99.90
5556;DHT22;2801;50.972;7.856;2024-03-06T04:55:11;3.50;99.90
5556;DHT22;2801;50.972;7.856;2024-03-06T04:57:42;3.40;99.90
5556;DHT22;2801;50.972;7.856;2024-03-06T05:00:11;3.70;99.90
5556;DHT22;2801;50.972;7.856;2024-03-06T05:02:39;3.50;99.90
5556;DHT22;2801;50.972;7.856;2024-03-06T05:05:27;3.70;99.90
5556;DHT22;2801;50.972;7.856;2024-03-06T05:08:11;3.70;99.90
5556;DHT22;2801;50.972;7.856;2024-03-06T05:11:00;3.80;99.90
5556;DHT22;2801;50.972;7.856;2024-03-06T05:13:46;3.70;99.90
5556;DHT22;2801;50.972;7.856;2024-03-06T05:16:30;3.70;99.90
5556;DHT22;2801;50.972;7.856;2024-03-06T05:19:15;3.80;99.90
5556;DHT22;2801;50.972;7.856;2024-03-06T05:22:00;3.50;99.90
5556;DHT22;2801;50.972;7.856;2024-03-06T05:24:44;3.70;99.90
5556;DHT22;2801;50.972;7.856;2024-03-06T05:27:29;3.50;99.90
5556;DHT22;2801;50.972;7.856;2024-03-06T05:30:14;3.40;99.90
5556;DHT22;2801;50.972;7.856;2024-03-06T05:32:58;3.60;99.90
5556;DHT22;2801;50.972;7.856;2024-03-06T05:35:43;3.30;99.90
5556;DHT22;2801;50.972;7.856;2024-03-06T05:38:28;3.30;99.90
5556;DHT22;2801;50.972;7.856;2024-03-06T05:41:12;3.60;99.90
5556;DHT22;2801;50.972;7.856;2024-03-06T05:43:57;3.60;99.90
5556;DHT22;2801;50.972;7.856;2024-03-06T05:46:41;3.50;99.90
5556;DHT22;2801;50.972;7.856;2024-03-06T05:49:27;3.60;99.90
5556;DHT22;2801;50.972;7.856;2024-03-06T05:52:12;3.50;99.90
5556;DHT22;2801;50.972;7.856;2024-03-06T05:54:56;3.40;99.90
5556;DHT22;2801;50.972;7.856;2024-03-06T05:57:41;3.60;99.90
5556;DHT22;2801;50.972;7.856;2024-03-06T06:00:29;3.60;99.90
5556;DHT22;2801;50.972;7.856;2024-03-06T06:02:56;3.40;99.90
5556;DHT22;2801;50.972;7.856;2024-03-06T06:05:23;3.70;99.90
5556;DHT22;2801;50.972;7.856;2024-03-06T06:07:51;3.70;99.90
5556;DHT22;2801;50.972;7.856;2024-03-06T06:10:18;3.60;99.90
5556;DHT22;2801;50.972;7.856;2024-03-06T06:12:48;3.60;99.90
5556;DHT22;2801;50.972;7.856;2024-03-06T06:15:16;3.70;99.90
5556;DHT22;2801;50.972;7.856;2024-03-06T06:17:43;3.70;99.90
5556;DHT22;2801;50.972;7.856;2024-03-06T06:20:12;3.80;99.90
5556;DHT22;2801;50.972;7.856;2024-03-06T06:22:45;3.70;99.90
5556;DHT22;2801;50.972;7.856;2024-03-06T06:25:12;3.90;99.90
5556;DHT22;2801;50.972;7.856;2024-03-06T06:27:40;3.80;99.90
5556;DHT22;2801;50.972;7.856;2024-03-06T06:30:08;3.70;99.90
5556;DHT22;2801;50.972;7.856;2024-03-06T06:32:39;3.90;99.90
5556;DHT22;2801;50.972;7.856;2024-03-06T06:35:12;3.80;99.90
5556;DHT22;2801;50.972;7.856;2024-03-06T06:37:40;3.90;99.90
5556;DHT22;2801;50.972;7.856;2024-03-06T06:40:08;4.00;99.90
5556;DHT22;2801;50.972;7.856;2024-03-06T06:42:37;4.00;99.90
5556;DHT22;2801;50.972;7.856;2024-03-06T06:45:04;4.00;99.90
5556;DHT22;2801;50.972;7.856;2024-03-06T06:47:36;4.10;99.90
5556;DHT22;2801;50.972;7.856;2024-03-06T06:50:04;4.20;99.90
5556;DHT22;2801;50.972;7.856;2024-03-06T06:52:32;4.00;99.90
5556;DHT22;2801;50.972;7.856;2024-03-06T06:55:01;4.20;99.90
5556;DHT22;2801;50.972;7.856;2024-03-06T06:57:29;4.00;99.90
5556;DHT22;2801;50.972;7.856;2024-03-06T06:59:57;4.20;99.90
5556;DHT22;2801;50.972;7.856;2024-03-06T07:02:24;4.30;99.90
5556;DHT22;2801;50.972;7.856;2024-03-06T07:04:52;4.30;99.90
5556;DHT22;2801;50.972;7.856;2024-03-06T07:07:19;4.20;99.90
5556;DHT22;2801;50.972;7.856;2024-03-06T07:09:46;4.30;99.90
5556;DHT22;2801;50.972;7.856;2024-03-06T07:12:13;4.50;99.90
5556;DHT22;2801;50.972;7.856;2024-03-06T07:14:40;4.30;99.90
5556;DHT22;2801;50.972;7.856;2024-03-06T07:17:07;4.60;99.90
5556;DHT22;2801;50.972;7.856;2024-03-06T07:19:35;4.50;99.90
5556;DHT22;2801;50.972;7.856;2024-03-06T07:22:02;4.70;99.90
5556;DHT22;2801;50.972;7.856;2024-03-06T07:24:29;4.80;99.90
5556;DHT22;2801;50.972;7.856;2024-03-06T07:26:56;4.80;99.90
5556;DHT22;2801;50.972;7.856;2024-03-06T07:29:23;4.90;99.90
5556;DHT22;2801;50.972;7.856;2024-03-06T07:31:51;4.90;99.90
5556;DHT22;2801;50.972;7.856;2024-03-06T07:34:18;4.90;99.90
5556;DHT22;2801;50.972;7.856;2024-03-06T07:36:45;5.10;99.90
5556;DHT22;2801;50.972;7.856;2024-03-06T07:39:15;5.10;99.90
5556;DHT22;2801;50.972;7.856;2024-03-06T07:41:42;5.20;99.90
5556;DHT22;2801;50.972;7.856;2024-03-06T07:44:09;5.20;99.90
5556;DHT22;2801;50.972;7.856;2024-03-06T07:46:37;5.30;99.90
5556;DHT22;2801;50.972;7.856;2024-03-06T07:49:04;5.40;99.90
5556;DHT22;2801;50.972;7.856;2024-03-06T07:51:34;5.50;99.90
5556;DHT22;2801;50.972;7.856;2024-03-06T07:54:05;5.40;99.90
5556;DHT22;2801;50.972;7.856;2024-03-06T07:56:32;5.50;99.90
5556;DHT22;2801;50.972;7.856;2024-03-06T07:59:00;5.50;99.90
5556;DHT22;2801;50.972;7.856;2024-03-06T08:01:28;5.60;99.90
5556;DHT22;2801;50.972;7.856;2024-03-06T08:03:55;5.60;99.90
5556;DHT22;2801;50.972;7.856;2024-03-06T08:06:23;5.70;99.90
5556;DHT22;2801;50.972;7.856;2024-03-06T08:08:50;5.70;99.90
5556;DHT22;2801;50.972;7.856;2024-03-06T08:11:18;5.70;99.90
5556;DHT22;2801;50.972;7.856;2024-03-06T08:13:48;5.70;99.90
5556;DHT22;2801;50.972;7.856;2024-03-06T08:16:16;5.70;99.90
5556;DHT22;2801;50.972;7.856;2024-03-06T08:18:44;5.70;99.90
5556;DHT22;2801;50.972;7.856;2024-03-06T08:21:11;5.70;99.90
5556;DHT22;2801;50.972;7.856;2024-03-06T08:23:38;5.80;99.90
5556;DHT22;2801;50.972;7.856;2024-03-06T08:26:05;5.80;99.90
5556;DHT22;2801;50.972;7.856;2024-03-06T08:28:32;5.80;99.90
5556;DHT22;2801;50.972;7.856;2024-03-06T08:31:00;5.90;99.90
5556;DHT22;2801;50.972;7.856;2024-03-06T08:33:27;6.10;99.90
5556;DHT22;2801;50.972;7.856;2024-03-06T08:35:57;6.00;99.90
5556;DHT22;2801;50.972;7.856;2024-03-06T08:38:24;6.20;99.90
5556;DHT22;2801;50.972;7.856;2024-03-06T08:40:52;6.50;99.90
5556;DHT22;2801;50.972;7.856;2024-03-06T08:43:19;6.40;99.90
5556;DHT22;2801;50.972;7.856;2024-03-06T08:45:46;6.40;99.90
5556;DHT22;2801;50.972;7.856;2024-03-06T08:48:13;6.30;99.90
5556;DHT22;2801;50.972;7.856;2024-03-06T08:50:41;6.20;99.90
5556;DHT22;2801;50.972;7.856;2024-03-06T08:53:08;6.10;99.90
5556;DHT22;2801;50.972;7.856;2024-03-06T08:55:36;6.10;99.90
5556;DHT22;2801;50.972;7.856;2024-03-06T08:58:03;6.30;99.90
5556;DHT22;2801;50.972;7.856;2024-03-06T09:00:31;6.50;99.90
5556;DHT22;2801;50.972;7.856;2024-03-06T09:02:58;6.60;99.90
5556;DHT22;2801;50.972;7.856;2024-03-06T09:05:26;6.70;99.90
5556;DHT22;2801;50.972;7.856;2024-03-06T09:07:53;6.90;99.90
5556;DHT22;2801;50.972;7.856;2024-03-06T09:10:20;7.00;99.90
5556;DHT22;2801;50.972;7.856;2024-03-06T09:12:47;7.10;99.90
5556;DHT22;2801;50.972;7.856;2024-03-06T09:15:15;7.10;99.90
5556;DHT22;2801;50.972;7.856;2024-03-06T09:17:43;7.20;99.90
5556;DHT22;2801;50.972;7.856;2024-03-06T09:20:11;7.40;99.90
5556;DHT22;2801;50.972;7.856;2024-03-06T09:22:41;7.40;99.90
5556;DHT22;2801;50.972;7.856;2024-03-06T09:25:09;7.60;99.90
5556;DHT22;2801;50.972;7.856;2024-03-06T09:27:41;7.60;99.90
5556;DHT22;2801;50.972;7.856;2024-03-06T09:30:09;7.80;99.90
5556;DHT22;2801;50.972;7.856;2024-03-06T09:32:37;7.90;99.90
5556;DHT22;2801;50.972;7.856;2024-03-06T09:35:06;8.10;99.90
5556;DHT22;2801;50.972;7.856;2024-03-06T09:37:33;8.20;99.90
5556;DHT22;2801;50.972;7.856;2024-03-06T09:40:00;8.30;99.90
5556;DHT22;2801;50.972;7.856;2024-03-06T09:42:27;8.50;99.90
5556;DHT22;2801;50.972;7.856;2024-03-06T09:44:54;8.40;99.90
5556;DHT22;2801;50.972;7.856;2024-03-06T09:47:22;8.50;99.90
5556;DHT22;2801;50.972;7.856;2024-03-06T09:49:52;8.60;99.90
5556;DHT22;2801;50.972;7.856;2024-03-06T09:52:24;8.70;99.90
5556;DHT22;2801;50.972;7.856;2024-03-06T09:54:54;8.80;99.90
5556;DHT22;2801;50.972;7.856;2024-03-06T09:57:22;8.80;99.90
5556;DHT22;2801;50.972;7.856;2024-03-06T09:59:49;9.00;99.90
5556;DHT22;2801;50.972;7.856;2024-03-06T10:02:36;9.00;99.90
5556;DHT22;2801;50.972;7.856;2024-03-06T10:05:06;9.20;99.90
5556;DHT22;2801;50.972;7.856;2024-03-06T10:07:47;9.30;99.90
5556;DHT22;2801;50.972;7.856;2024-03-06T10:10:20;9.60;99.90
5556;DHT22;2801;50.972;7.856;2024-03-06T10:12:50;9.90;99.90
5556;DHT22;2801;50.972;7.856;2024-03-06T10:15:17;10.20;99.90
5556;DHT22;2801;50.972;7.856;2024-03-06T10:17:44;10.40;99.90
5556;DHT22;2801;50.972;7.856;2024-03-06T10:20:21;10.60;99.90
5556;DHT22;2801;50.972;7.856;2024-03-06T10:22:51;10.60;99.90
5556;DHT22;2801;50.972;7.856;2024-03-06T10:25:24;10.90;99.90
5556;DHT22;2801;50.972;7.856;2024-03-06T10:30:34;10.50;99.90
5556;DHT22;2801;50.972;7.856;2024-03-06T10:33:09;10.30;99.90
5556;DHT22;2801;50.972;7.856;2024-03-06T10:35:39;10.10;99.90
5556;DHT22;2801;50.972;7.856;2024-03-06T10:38:11;9.90;99.90
5556;DHT22;2801;50.972;7.856;2024-03-06T10:40:41;9.80;99.90
5556;DHT22;2801;50.972;7.856;2024-03-06T10:43:09;9.70;99.90
5556;DHT22;2801;50.972;7.856;2024-03-06T10:48:14;9.40;99.90
5556;DHT22;2801;50.972;7.856;2024-03-06T10:50:43;9.40;99.90
5556;DHT22;2801;50.972;7.856;2024-03-06T10:53:13;9.90;99.90
5556;DHT22;2801;50.972;7.856;2024-03-06T10:55:49;10.60;99.90
5556;DHT22;2801;50.972;7.856;2024-03-06T10:58:18;10.80;99.90
5556;DHT22;2801;50.972;7.856;2024-03-06T11:00:48;11.10;99.90
5556;DHT22;2801;50.972;7.856;2024-03-06T11:03:15;11.60;99.90
5556;DHT22;2801;50.972;7.856;2024-03-06T11:05:44;12.30;99.90
5556;DHT22;2801;50.972;7.856;2024-03-06T11:08:15;12.80;99.90
5556;DHT22;2801;50.972;7.856;2024-03-06T11:10:44;12.80;99.90
5556;DHT22;2801;50.972;7.856;2024-03-06T11:13:25;12.80;99.90
5556;DHT22;2801;50.972;7.856;2024-03-06T11:15:57;12.80;99.90
5556;DHT22;2801;50.972;7.856;2024-03-06T11:23:29;12.50;99.90
5556;DHT22;2801;50.972;7.856;2024-03-06T11:28:37;12.80;99.90
5556;DHT22;2801;50.972;7.856;2024-03-06T11:31:10;12.90;99.90
5556;DHT22;2801;50.972;7.856;2024-03-06T11:33:44;12.90;99.90
5556;DHT22;2801;50.972;7.856;2024-03-06T11:41:53;11.70;99.90
5556;DHT22;2801;50.972;7.856;2024-03-06T11:44:22;11.30;99.90
5556;DHT22;2801;50.972;7.856;2024-03-06T11:46:57;11.20;99.90
5556;DHT22;2801;50.972;7.856;2024-03-06T11:49:28;11.00;99.90
5556;DHT22;2801;50.972;7.856;2024-03-06T11:51:57;10.80;99.90
5556;DHT22;2801;50.972;7.856;2024-03-06T11:54:26;10.80;99.90
5556;DHT22;2801;50.972;7.856;2024-03-06T11:56:57;10.70;99.90
5556;DHT22;2801;50.972;7.856;2024-03-06T11:59:28;10.60;99.90
5556;DHT22;2801;50.972;7.856;2024-03-06T12:01:57;10.50;99.90
5556;DHT22;2801;50.972;7.856;2024-03-06T12:04:30;10.50;99.90
5556;DHT22;2801;50.972;7.856;2024-03-06T12:06:58;10.50;99.90
5556;DHT22;2801;50.972;7.856;2024-03-06T12:09:33;10.50;99.90
5556;DHT22;2801;50.972;7.856;2024-03-06T12:12:07;10.40;99.90
5556;DHT22;2801;50.972;7.856;2024-03-06T12:14:35;10.40;99.90
5556;DHT22;2801;50.972;7.856;2024-03-06T12:17:03;10.50;99.90
5556;DHT22;2801;50.972;7.856;2024-03-06T12:19:35;10.30;99.90
5556;DHT22;2801;50.972;7.856;2024-03-06T12:22:05;10.20;99.90
5556;DHT22;2801;50.972;7.856;2024-03-06T12:24:36;10.20;99.90
5556;DHT22;2801;50.972;7.856;2024-03-06T12:27:06;10.00;99.90
5556;DHT22;2801;50.972;7.856;2024-03-06T12:29:35;9.90;99.90
5556;DHT22;2801;50.972;7.856;2024-03-06T12:32:16;9.80;99.90
5556;DHT22;2801;50.972;7.856;2024-03-06T12:34:59;9.80;99.90
5556;DHT22;2801;50.972;7.856;2024-03-06T12:37:31;9.90;99.90
5556;DHT22;2801;50.972;7.856;2024-03-06T12:40:00;9.80;99.90
5556;DHT22;2801;50.972;7.856;2024-03-06T12:42:29;9.80;99.90
5556;DHT22;2801;50.972;7.856;2024-03-06T12:44:56;9.70;99.90
5556;DHT22;2801;50.972;7.856;2024-03-06T12:47:23;9.80;99.90
5556;DHT22;2801;50.972;7.856;2024-03-06T12:49:50;9.90;99.90
5556;DHT22;2801;50.972;7.856;2024-03-06T12:52:17;10.10;99.90
5556;DHT22;2801;50.972;7.856;2024-03-06T12:54:44;10.30;99.90
5556;DHT22;2801;50.972;7.856;2024-03-06T12:57:11;10.50;99.90
5556;DHT22;2801;50.972;7.856;2024-03-06T12:59:39;10.70;99.90
5556;DHT22;2801;50.972;7.856;2024-03-06T13:02:07;11.00;99.90
5556;DHT22;2801;50.972;7.856;2024-03-06T13:04:34;11.10;99.90
5556;DHT22;2801;50.972;7.856;2024-03-06T13:07:01;11.30;99.90
5556;DHT22;2801;50.972;7.856;2024-03-06T13:09:29;11.50;99.90
5556;DHT22;2801;50.972;7.856;2024-03-06T13:11:56;11.60;99.90
5556;DHT22;2801;50.972;7.856;2024-03-06T13:14:23;11.80;99.90
5556;DHT22;2801;50.972;7.856;2024-03-06T13:16:50;11.70;99.90
5556;DHT22;2801;50.972;7.856;2024-03-06T13:19:17;11.70;99.90
5556;DHT22;2801;50.972;7.856;2024-03-06T13:21:44;11.60;99.90
5556;DHT22;2801;50.972;7.856;2024-03-06T13:24:11;11.80;99.90
5556;DHT22;2801;50.972;7.856;2024-03-06T13:26:44;11.70;99.90
5556;DHT22;2801;50.972;7.856;2024-03-06T13:29:12;11.80;99.90
5556;DHT22;2801;50.972;7.856;2024-03-06T13:31:40;11.70;99.90
5556;DHT22;2801;50.972;7.856;2024-03-06T13:34:07;11.70;99.90
5556;DHT22;2801;50.972;7.856;2024-03-06T13:36:37;11.70;99.90
5556;DHT22;2801;50.972;7.856;2024-03-06T13:39:04;11.70;99.90
5556;DHT22;2801;50.972;7.856;2024-03-06T13:41:31;11.70;99.90
5556;DHT22;2801;50.972;7.856;2024-03-06T13:43:58;11.80;99.90
5556;DHT22;2801;50.972;7.856;2024-03-06T13:46:25;11.80;99.90
5556;DHT22;2801;50.972;7.856;2024-03-06T13:48:52;11.80;99.90
5556;DHT22;2801;50.972;7.856;2024-03-06T13:51:19;11.80;99.90
5556;DHT22;2801;50.972;7.856;2024-03-06T13:53:46;11.80;99.90
5556;DHT22;2801;50.972;7.856;2024-03-06T13:56:13;11.80;99.90
5556;DHT22;2801;50.972;7.856;2024-03-06T13:58:40;11.70;99.90
5556;DHT22;2801;50.972;7.856;2024-03-06T14:01:07;11.70;99.90
5556;DHT22;2801;50.972;7.856;2024-03-06T14:03:34;11.60;99.90
5556;DHT22;2801;50.972;7.856;2024-03-06T14:06:04;11.70;99.90
5556;DHT22;2801;50.972;7.856;2024-03-06T14:08:36;11.80;99.90
5556;DHT22;2801;50.972;7.856;2024-03-06T14:11:06;11.70;99.90
5556;DHT22;2801;50.972;7.856;2024-03-06T14:13:34;11.60;99.90
5556;DHT22;2801;50.972;7.856;2024-03-06T14:16:01;11.50;99.90
5556;DHT22;2801;50.972;7.856;2024-03-06T14:18:28;11.50;99.90
5556;DHT22;2801;50.972;7.856;2024-03-06T14:20:55;11.60;99.90
5556;DHT22;2801;50.972;7.856;2024-03-06T14:23:22;11.60;99.90
5556;DHT22;2801;50.972;7.856;2024-03-06T14:25:49;11.50;99.90
5556;DHT22;2801;50.972;7.856;2024-03-06T14:28:17;11.30;99.90
5556;DHT22;2801;50.972;7.856;2024-03-06T14:30:44;11.20;99.90
5556;DHT22;2801;50.972;7.856;2024-03-06T14:33:12;11.20;99.90
5556;DHT22;2801;50.972;7.856;2024-03-06T14:35:39;11.30;99.90
5556;DHT22;2801;50.972;7.856;2024-03-06T14:38:06;11.40;99.90
5556;DHT22;2801;50.972;7.856;2024-03-06T14:40:33;11.40;99.90
5556;DHT22;2801;50.972;7.856;2024-03-06T14:43:00;11.40;99.90
5556;DHT22;2801;50.972;7.856;2024-03-06T14:45:28;11.50;99.90
5556;DHT22;2801;50.972;7.856;2024-03-06T14:47:55;11.40;99.90
5556;DHT22;2801;50.972;7.856;2024-03-06T14:50:22;11.30;99.90
5556;DHT22;2801;50.972;7.856;2024-03-06T14:52:52;11.40;99.90
5556;DHT22;2801;50.972;7.856;2024-03-06T14:55:19;11.20;99.90
5556;DHT22;2801;50.972;7.856;2024-03-06T14:57:47;11.00;99.90
5556;DHT22;2801;50.972;7.856;2024-03-06T15:00:14;10.80;99.90
5556;DHT22;2801;50.972;7.856;2024-03-06T15:02:44;10.90;99.90
5556;DHT22;2801;50.972;7.856;2024-03-06T15:05:12;10.70;99.90
5556;DHT22;2801;50.972;7.856;2024-03-06T15:07:39;10.70;99.90
5556;DHT22;2801;50.972;7.856;2024-03-06T15:10:06;10.80;99.90
5556;DHT22;2801;50.972;7.856;2024-03-06T15:12:37;10.90;99.90
5556;DHT22;2801;50.972;7.856;2024-03-06T15:15:05;10.90;99.90
5556;DHT22;2801;50.972;7.856;2024-03-06T15:17:33;11.00;99.90
5556;DHT22;2801;50.972;7.856;2024-03-06T15:20:00;11.10;99.90
5556;DHT22;2801;50.972;7.856;2024-03-06T15:22:27;11.30;99.90
5556;DHT22;2801;50.972;7.856;2024-03-06T15:24:55;11.40;99.90
5556;DHT22;2801;50.972;7.856;2024-03-06T15:27:22;11.50;99.90
5556;DHT22;2801;50.972;7.856;2024-03-06T15:29:49;11.40;99.90
5556;DHT22;2801;50.972;7.856;2024-03-06T15:32:16;11.40;99.90
5556;DHT22;2801;50.972;7.856;2024-03-06T15:34:43;11.30;99.90
5556;DHT22;2801;50.972;7.856;2024-03-06T15:37:11;11.20;99.90
5556;DHT22;2801;50.972;7.856;2024-03-06T15:39:38;11.10;99.90
5556;DHT22;2801;50.972;7.856;2024-03-06T15:42:05;11.00;99.90
5556;DHT22;2801;50.972;7.856;2024-03-06T15:44:32;10.90;99.90
5556;DHT22;2801;50.972;7.856;2024-03-06T15:46:59;10.80;99.90
5556;DHT22;2801;50.972;7.856;2024-03-06T15:49:36;11.00;99.90
5556;DHT22;2801;50.972;7.856;2024-03-06T15:52:03;10.80;99.90
5556;DHT22;2801;50.972;7.856;2024-03-06T15:54:30;10.80;99.90
5556;DHT22;2801;50.972;7.856;2024-03-06T15:56:58;10.80;99.90
5556;DHT22;2801;50.972;7.856;2024-03-06T15:59:25;10.70;99.90
5556;DHT22;2801;50.972;7.856;2024-03-06T16:01:52;10.70;99.90
5556;DHT22;2801;50.972;7.856;2024-03-06T16:04:19;10.60;99.90
5556;DHT22;2801;50.972;7.856;2024-03-06T16:06:46;10.60;99.90
5556;DHT22;2801;50.972;7.856;2024-03-06T16:09:14;10.40;99.90
5556;DHT22;2801;50.972;7.856;2024-03-06T16:11:41;10.50;99.90
5556;DHT22;2801;50.972;7.856;2024-03-06T16:14:09;10.50;99.90
5556;DHT22;2801;50.972;7.856;2024-03-06T16:16:43;10.40;99.90
5556;DHT22;2801;50.972;7.856;2024-03-06T16:19:11;10.40;99.90
5556;DHT22;2801;50.972;7.856;2024-03-06T16:21:38;10.30;99.90
5556;DHT22;2801;50.972;7.856;2024-03-06T16:24:06;10.30;99.90
5556;DHT22;2801;50.972;7.856;2024-03-06T16:26:36;10.30;99.90
5556;DHT22;2801;50.972;7.856;2024-03-06T16:29:04;10.20;99.90
5556;DHT22;2801;50.972;7.856;2024-03-06T16:31:31;10.10;99.90
5556;DHT22;2801;50.972;7.856;2024-03-06T16:33:58;10.10;99.90
5556;DHT22;2801;50.972;7.856;2024-03-06T16:36:26;10.00;99.90
5556;DHT22;2801;50.972;7.856;2024-03-06T16:38:53;9.90;99.90
5556;DHT22;2801;50.972;7.856;2024-03-06T16:41:20;9.80;99.90
5556;DHT22;2801;50.972;7.856;2024-03-06T16:43:47;9.70;99.90
5556;DHT22;2801;50.972;7.856;2024-03-06T16:46:16;9.60;99.90